createdAt,value
2018-04-08T00:00:27.111Z,5.37
2018-04-08T00:02:57.618Z,3.97
2018-04-08T00:05:26.702Z,4.27
2018-04-08T00:07:56.629Z,4.53
2018-04-08T00:10:26.764Z,4.00
2018-04-08T00:12:56.891Z,4.90
2018-04-08T00:15:38.777Z,4.77
2018-04-08T00:18:09.781Z,4.63
2018-04-08T00:20:39.714Z,5.07
2018-04-08T00:23:09.230Z,4.23
2018-04-08T00:25:39.370Z,4.57
2018-04-08T00:28:09.322Z,5.23
2018-04-08T00:30:42.300Z,4.60
2018-04-08T00:33:11.815Z,4.10
2018-04-08T00:35:44.003Z,5.07
2018-04-08T00:38:14.417Z,5.13
2018-04-08T00:40:46.412Z,4.43
2018-04-08T00:43:17.084Z,4.43
2018-04-08T00:45:51.527Z,4.90
2018-04-08T00:48:21.279Z,4.73
2018-04-08T00:50:55.106Z,4.00
2018-04-08T00:53:25.278Z,4.50
2018-04-08T00:55:57.908Z,4.87
2018-04-08T00:58:27.373Z,4.57
2018-04-08T01:01:01.268Z,4.03
2018-04-08T01:03:31.101Z,4.40
2018-04-08T01:06:05.519Z,4.10
2018-04-08T01:08:36.150Z,3.67
2018-04-08T01:11:09.690Z,3.37
2018-04-08T01:13:39.366Z,3.60
2018-04-08T01:16:22.252Z,3.40
2018-04-08T01:18:51.753Z,4.47
2018-04-08T01:21:21.178Z,3.20
2018-04-08T01:23:50.990Z,3.43
2018-04-08T01:26:23.162Z,3.33
2018-04-08T01:28:53.790Z,3.23
2018-04-08T01:31:25.751Z,4.50
2018-04-08T01:33:56.070Z,2.90
2018-04-08T01:36:29.656Z,4.10
2018-04-08T01:39:00.043Z,4.57
2018-04-08T01:41:33.061Z,3.00
2018-04-08T01:44:02.591Z,2.87
2018-04-08T01:46:35.427Z,3.63
2018-04-08T01:49:04.952Z,3.00
2018-04-08T01:51:47.961Z,4.33
2018-04-08T01:54:18.279Z,4.03
2018-04-08T01:56:47.864Z,3.93
2018-04-08T01:59:18.035Z,4.30
2018-04-08T02:01:47.587Z,3.50
2018-04-08T02:04:17.897Z,4.43
2018-04-08T02:06:50.290Z,4.03
2018-04-08T02:09:19.858Z,3.30
2018-04-08T02:11:55.179Z,4.50
2018-04-08T02:14:24.636Z,3.57
2018-04-08T02:17:00.885Z,3.50
2018-04-08T02:19:31.943Z,3.30
2018-04-08T02:22:05.149Z,3.33
2018-04-08T02:24:34.796Z,4.10
2018-04-08T02:27:11.342Z,4.47
2018-04-08T02:29:40.850Z,3.60
2018-04-08T02:32:12.986Z,3.83
2018-04-08T02:34:42.952Z,4.63
2018-04-08T02:37:18.024Z,4.97
2018-04-08T02:39:49.376Z,4.43
2018-04-08T02:42:19.660Z,4.63
2018-04-08T02:44:49.308Z,4.23
2018-04-08T02:47:23.305Z,4.90
2018-04-08T02:49:54.932Z,5.03
2018-04-08T02:52:26.259Z,4.93
2018-04-08T02:54:56.773Z,5.33
2018-04-08T02:57:40.020Z,5.20
2018-04-08T03:00:10.157Z,5.20
2018-04-08T03:02:40.645Z,4.17
2018-04-08T03:05:11.171Z,5.67
2018-04-08T03:07:41.266Z,5.53
2018-04-08T03:10:11.246Z,5.27
2018-04-08T03:12:42.839Z,5.63
2018-04-08T03:15:13.301Z,5.33
2018-04-08T03:17:55.902Z,5.33
2018-04-08T03:20:26.797Z,5.77
2018-04-08T03:22:57.181Z,5.83
2018-04-08T03:25:27.281Z,6.67
2018-04-08T03:27:58.058Z,6.33
2018-04-08T03:30:29.001Z,5.30
2018-04-08T03:32:59.818Z,5.77
2018-04-08T03:35:29.988Z,5.20
2018-04-08T03:37:59.749Z,5.90
2018-04-08T03:40:29.397Z,5.10
2018-04-08T03:43:03.101Z,5.13
2018-04-08T03:45:33.339Z,5.90
2018-04-08T03:48:06.752Z,5.20
2018-04-08T03:50:36.821Z,5.67
2018-04-08T03:53:10.358Z,4.67
2018-04-08T03:55:40.678Z,5.40
2018-04-08T03:58:14.460Z,5.17
2018-04-08T04:00:45.123Z,4.80
2018-04-08T04:03:15.960Z,4.70
2018-04-08T04:05:45.782Z,4.70
2018-04-08T04:08:19.682Z,5.90
2018-04-08T04:10:49.830Z,5.80
2018-04-08T04:13:31.919Z,4.93
2018-04-08T04:16:01.808Z,5.73
2018-04-08T04:18:40.596Z,6.07
2018-04-08T04:21:26.984Z,5.33
2018-04-08T04:24:02.773Z,5.37
2018-04-08T04:26:33.712Z,6.03
2018-04-08T04:29:03.590Z,7.17
2018-04-08T04:31:34.498Z,5.87
2018-04-08T04:34:05.406Z,6.57
2018-04-08T04:36:36.788Z,6.43
2018-04-08T04:39:06.748Z,5.80
2018-04-08T04:41:39.890Z,6.17
2018-04-08T04:44:09.107Z,6.57
2018-04-08T04:46:45.378Z,6.50
2018-04-08T04:49:17.825Z,7.13
2018-04-08T04:51:48.458Z,6.60
2018-04-08T04:54:19.075Z,6.77
2018-04-08T04:56:49.458Z,7.53
2018-04-08T04:59:18.979Z,7.30
2018-04-08T05:01:52.094Z,7.27
2018-04-08T05:04:22.103Z,5.60
2018-04-08T05:06:55.728Z,6.57
2018-04-08T05:09:25.953Z,6.23
2018-04-08T05:12:00.451Z,6.67
2018-04-08T05:14:30.132Z,5.87
2018-04-08T05:17:04.329Z,7.63
2018-04-08T05:19:35.273Z,6.33
2018-04-08T05:22:09.095Z,5.13
2018-04-08T05:24:38.705Z,6.60
2018-04-08T05:27:13.232Z,6.40
2018-04-08T05:29:43.997Z,3.60
2018-04-08T05:32:17.370Z,4.70
2018-04-08T05:34:46.880Z,5.13
2018-04-08T05:37:18.683Z,5.40
2018-04-08T05:39:49.487Z,4.80
2018-04-08T05:42:22.536Z,5.20
2018-04-08T05:44:52.534Z,4.53
2018-04-08T05:47:25.563Z,4.20
2018-04-08T05:49:56.374Z,3.63
2018-04-08T05:52:28.717Z,4.17
2018-04-08T05:54:59.702Z,5.27
2018-04-08T05:57:31.686Z,3.53
2018-04-08T06:00:02.624Z,4.10
2018-04-08T06:02:35.778Z,3.60
2018-04-08T06:05:05.369Z,4.10
2018-04-08T06:07:39.025Z,4.03
2018-04-08T06:10:09.408Z,3.67
2018-04-08T06:12:42.407Z,4.50
2018-04-08T06:15:13.581Z,4.30
2018-04-08T06:17:43.825Z,4.50
2018-04-08T06:20:14.918Z,4.37
2018-04-08T06:22:47.474Z,4.20
2018-04-08T06:25:16.863Z,4.50
2018-04-08T06:27:59.563Z,2.70
2018-04-08T06:30:29.126Z,3.40
2018-04-08T06:32:58.941Z,3.10
2018-04-08T06:35:29.016Z,3.67
2018-04-08T06:38:03.140Z,3.80
2018-04-08T06:40:33.699Z,3.10
2018-04-08T06:43:05.948Z,3.00
2018-04-08T06:45:35.843Z,3.40
2018-04-08T06:48:10.624Z,3.70
2018-04-08T06:50:40.492Z,2.67
2018-04-08T06:53:14.212Z,3.63
2018-04-08T06:55:44.357Z,4.03
2018-04-08T06:58:15.756Z,3.80
2018-04-08T07:00:46.403Z,4.53
2018-04-08T07:03:19.099Z,5.50
2018-04-08T07:05:49.262Z,5.50
2018-04-08T07:08:22.054Z,5.37
2018-04-08T07:10:52.520Z,5.70
2018-04-08T07:13:23.912Z,5.23
2018-04-08T07:15:54.284Z,4.67
2018-04-08T07:18:36.503Z,5.17
2018-04-08T07:21:06.066Z,4.70
2018-04-08T07:23:36.125Z,4.57
2018-04-08T07:26:05.621Z,4.83
2018-04-08T07:28:36.967Z,5.17
2018-04-08T07:31:06.362Z,4.30
2018-04-08T07:33:39.591Z,4.80
2018-04-08T07:36:08.658Z,5.10
2018-04-08T07:38:38.078Z,5.83
2018-04-08T07:41:08.387Z,4.00
2018-04-08T07:43:38.273Z,4.90
2018-04-08T07:46:08.219Z,4.40
2018-04-08T07:48:38.390Z,4.57
2018-04-08T07:51:08.336Z,4.10
2018-04-08T07:53:38.189Z,4.20
2018-04-08T07:56:08.447Z,3.80
2018-04-08T07:58:37.904Z,3.67
2018-04-08T08:01:08.068Z,4.07
2018-04-08T08:03:38.177Z,5.00
2018-04-08T08:06:08.765Z,3.90
2018-04-08T08:08:38.165Z,3.73
2018-04-08T08:11:09.005Z,3.80
2018-04-08T08:13:39.586Z,4.80
2018-04-08T08:16:13.098Z,4.20
2018-04-08T08:18:43.180Z,3.90
2018-04-08T08:21:16.867Z,4.60
2018-04-08T08:23:45.990Z,4.87
2018-04-08T08:26:19.115Z,3.87
2018-04-08T08:28:48.067Z,5.67
2018-04-08T08:31:30.367Z,4.80
2018-04-08T08:34:00.019Z,4.87
2018-04-08T08:49:43.766Z,4.43
2018-04-08T08:52:13.270Z,5.13
2018-04-08T08:54:44.052Z,4.93
2018-04-08T08:57:13.661Z,4.47
2018-04-08T08:59:43.194Z,6.47
2018-04-08T09:02:13.213Z,6.63
2018-04-08T09:04:46.578Z,6.30
2018-04-08T09:07:16.327Z,5.90
2018-04-08T09:09:50.378Z,6.87
2018-04-08T09:12:19.511Z,7.40
2018-04-08T09:14:53.222Z,6.23
2018-04-08T09:17:22.961Z,7.10
2018-04-08T09:19:56.906Z,6.50
2018-04-08T09:22:26.621Z,7.43
2018-04-08T09:25:00.154Z,11.03
2018-04-08T09:27:29.902Z,7.93
2018-04-08T09:30:02.177Z,7.37
2018-04-08T09:32:32.585Z,8.33
2018-04-08T09:35:06.716Z,8.27
2018-04-08T09:37:35.918Z,7.33
2018-04-08T09:40:09.757Z,7.87
2018-04-08T09:42:39.135Z,7.83
2018-04-08T09:45:08.024Z,7.33
2018-04-08T09:47:37.261Z,7.07
2018-04-08T09:50:05.764Z,7.60
2018-04-08T09:52:34.552Z,7.20
2018-04-08T09:55:04.737Z,7.30
2018-04-08T09:57:40.872Z,7.30
2018-04-08T10:00:13.841Z,7.43
2018-04-08T10:02:47.328Z,7.47
2018-04-08T10:05:21.450Z,7.27
2018-04-08T10:07:57.455Z,7.07
2018-04-08T10:10:36.434Z,7.10
2018-04-08T10:13:08.932Z,8.07
2018-04-08T10:15:43.536Z,7.53
2018-04-08T10:18:21.496Z,7.40
2018-04-08T10:20:55.191Z,8.27
2018-04-08T10:23:30.090Z,7.93
2018-04-08T10:26:02.796Z,8.33
2018-04-08T10:28:35.136Z,8.27
2018-04-08T10:31:13.163Z,8.17
2018-04-08T10:33:54.349Z,8.70
2018-04-08T10:36:28.587Z,7.70
2018-04-08T10:39:04.010Z,8.37
2018-04-08T10:41:37.661Z,7.07
2018-04-08T10:44:13.772Z,6.77
2018-04-08T10:46:46.722Z,8.43
2018-04-08T10:49:25.924Z,7.50
2018-04-08T10:52:04.413Z,8.30
2018-04-08T10:54:38.477Z,7.57
2018-04-08T10:57:24.337Z,8.63
2018-04-08T10:59:59.973Z,8.73
2018-04-08T11:02:33.370Z,8.40
2018-04-08T11:05:13.282Z,7.33
2018-04-08T11:07:49.549Z,7.63
2018-04-08T11:10:24.878Z,7.77
2018-04-08T11:12:58.328Z,7.87
2018-04-08T11:15:27.627Z,8.07
2018-04-08T11:17:56.154Z,8.07
2018-04-08T11:20:34.243Z,8.90
2018-04-08T11:23:10.991Z,7.80
2018-04-08T11:25:51.898Z,8.93
2018-04-08T11:31:05.782Z,8.30
2018-04-08T11:33:42.944Z,8.03
2018-04-08T11:36:16.731Z,9.47
2018-04-08T11:38:53.075Z,8.90
2018-04-08T11:41:28.933Z,7.57
2018-04-08T11:44:04.162Z,7.17
2018-04-08T11:46:38.238Z,8.10
2018-04-08T11:49:15.610Z,7.90
2018-04-08T11:51:54.797Z,9.20
2018-04-08T11:54:27.765Z,9.63
2018-04-08T11:57:02.988Z,9.37
2018-04-08T11:59:37.326Z,9.67
2018-04-08T12:07:38.786Z,11.37
2018-04-08T12:10:11.924Z,10.67
2018-04-08T12:12:44.583Z,8.90
2018-04-08T12:15:22.872Z,9.07
2018-04-08T12:17:58.936Z,9.50
2018-04-08T12:20:33.287Z,10.20
2018-04-08T12:23:17.505Z,10.50
2018-04-08T12:25:51.847Z,10.87
2018-04-08T12:28:27.779Z,10.03
2018-04-08T12:31:05.848Z,9.47
2018-04-08T12:33:40.542Z,9.77
2018-04-08T12:36:24.063Z,7.83
2018-04-08T12:38:59.194Z,8.47
2018-04-08T12:41:34.065Z,9.83
2018-04-08T12:44:11.962Z,9.47
2018-04-08T12:46:48.959Z,8.73
2018-04-08T12:49:30.432Z,8.63
2018-04-08T12:52:04.387Z,9.27
2018-04-08T12:54:38.787Z,7.80
2018-04-08T12:57:13.329Z,8.17
2018-04-08T12:59:49.630Z,7.67
2018-04-08T13:02:26.233Z,7.03
2018-04-08T13:05:02.635Z,6.50
2018-04-08T13:21:08.191Z,6.10
2018-04-08T13:26:37.642Z,6.80
2018-04-08T13:29:16.712Z,6.77
2018-04-08T13:31:50.868Z,5.83
2018-04-08T13:34:28.203Z,6.70
2018-04-08T13:37:09.252Z,6.57
2018-04-08T13:39:45.056Z,6.40
2018-04-08T13:42:21.138Z,5.93
2018-04-08T13:44:59.534Z,5.20
2018-04-08T13:47:37.281Z,5.10
2018-04-08T13:50:20.286Z,4.87
2018-04-08T13:52:56.948Z,5.67
2018-04-08T13:55:31.214Z,4.47
2018-04-08T13:58:08.125Z,4.80
2018-04-08T14:00:44.067Z,4.80
2018-04-08T14:03:24.711Z,4.47
2018-04-08T14:06:00.326Z,4.70
2018-04-08T14:08:36.489Z,5.13
2018-04-08T14:11:16.701Z,4.47
2018-04-08T14:13:56.591Z,4.30
2018-04-08T14:16:35.682Z,4.80
2018-04-08T14:19:11.083Z,5.00
2018-04-08T14:21:49.786Z,4.40
2018-04-08T14:24:27.903Z,4.47
2018-04-08T14:27:05.217Z,4.00
2018-04-08T14:29:52.022Z,4.30
2018-04-08T14:32:36.673Z,4.13
2018-04-08T14:35:13.020Z,3.87
2018-04-08T14:38:08.634Z,4.60
2018-04-08T14:43:30.079Z,4.57
2018-04-08T14:46:07.341Z,4.53
2018-04-08T14:48:45.799Z,5.27
2018-04-08T14:51:22.303Z,4.47
2018-04-08T14:53:59.350Z,4.40
2018-04-08T14:56:38.792Z,4.80
2018-04-08T14:59:15.517Z,5.50
2018-04-08T15:01:49.699Z,6.63
2018-04-08T15:04:24.311Z,5.93
2018-04-08T15:09:49.032Z,6.72
2018-04-08T15:12:26.512Z,7.30
2018-04-08T15:15:00.572Z,6.18
2018-04-08T15:17:33.468Z,5.18
2018-04-08T15:22:41.096Z,5.90
2018-04-08T15:25:39.878Z,4.93
2018-04-08T15:28:25.743Z,5.22
2018-04-08T15:31:00.334Z,4.30
2018-04-08T15:33:30.697Z,4.93
2018-04-08T15:36:00.751Z,4.30
2018-04-08T15:38:29.995Z,5.00
2018-04-08T15:40:59.553Z,4.90
2018-04-08T15:43:28.045Z,5.13
2018-04-08T15:45:58.712Z,4.47
2018-04-08T15:48:30.444Z,4.63
2018-04-08T15:51:00.607Z,4.90
2018-04-08T15:53:29.900Z,5.40
2018-04-08T15:56:00.037Z,5.17
2018-04-08T15:58:30.685Z,4.90
2018-04-08T16:00:59.449Z,4.77
2018-04-08T16:03:27.913Z,5.23
2018-04-08T16:05:56.420Z,5.10
2018-04-08T16:08:28.851Z,4.47
2018-04-08T16:10:58.757Z,5.13
2018-04-08T16:13:33.683Z,4.50
2018-04-08T16:16:02.439Z,5.00
2018-04-08T16:18:36.976Z,4.83
2018-04-08T16:21:06.206Z,4.47
2018-04-08T16:23:37.807Z,4.37
2018-04-08T16:26:07.676Z,4.37
2018-04-08T16:28:39.018Z,4.20
2018-04-08T16:31:11.609Z,4.43
2018-04-08T16:33:41.528Z,4.57
2018-04-08T16:36:11.674Z,4.53
2018-04-08T16:38:48.539Z,4.10
2018-04-08T16:41:19.031Z,4.27
2018-04-08T16:43:49.705Z,4.77
2018-04-08T16:46:21.293Z,4.40
2018-04-08T16:48:51.508Z,4.63
2018-04-08T16:51:34.471Z,4.37
2018-04-08T16:54:06.100Z,4.90
2018-04-08T16:56:40.442Z,4.83
2018-04-08T16:59:12.958Z,3.53
2018-04-08T17:01:43.636Z,3.47
2018-04-08T17:04:15.732Z,3.50
2018-04-08T17:09:32.945Z,3.60
2018-04-08T17:12:02.625Z,3.50
2018-04-08T17:14:35.552Z,3.40
2018-04-08T17:17:06.176Z,3.13
2018-04-08T17:19:38.042Z,3.40
2018-04-08T17:22:08.859Z,3.03
2018-04-08T17:24:39.080Z,3.20
2018-04-08T17:27:08.042Z,3.27
2018-04-08T17:29:39.756Z,2.80
2018-04-08T17:32:12.436Z,3.40
2018-04-08T17:34:42.913Z,3.83
2018-04-08T17:37:14.120Z,3.80
2018-04-08T17:39:45.297Z,3.43
2018-04-08T17:42:16.545Z,3.97
2018-04-08T17:44:48.083Z,3.77
2018-04-08T17:47:17.929Z,3.50
2018-04-08T17:49:49.135Z,4.20
2018-04-08T17:52:20.669Z,3.87
2018-04-08T17:54:52.143Z,4.17
2018-04-08T17:57:24.726Z,3.90
2018-04-08T17:59:53.621Z,4.10
2018-04-08T18:02:24.873Z,4.67
2018-04-08T18:04:56.956Z,5.47
2018-04-08T18:07:26.185Z,5.00
2018-04-08T18:09:56.072Z,5.17
2018-04-08T18:12:28.957Z,5.23
2018-04-08T18:14:58.502Z,4.90
2018-04-08T18:17:31.260Z,4.73
2018-04-08T18:20:02.356Z,4.40
2018-04-08T18:22:34.495Z,4.53
2018-04-08T18:25:05.040Z,4.03
2018-04-08T18:27:56.032Z,4.73
2018-04-08T18:30:26.500Z,5.67
2018-04-08T18:32:59.452Z,7.23
2018-04-08T18:48:48.738Z,5.10
2018-04-08T18:51:31.847Z,5.67
2018-04-08T18:54:07.108Z,6.23
2018-04-08T18:56:43.326Z,7.70
2018-04-08T18:59:26.843Z,12.70
2018-04-08T19:02:04.239Z,25.27
2018-04-08T19:04:41.225Z,13.90
2018-04-08T19:07:12.947Z,7.50
2018-04-08T19:09:48.250Z,6.20
2018-04-08T19:12:22.827Z,6.30
2018-04-08T19:15:03.118Z,6.30
2018-04-08T19:17:48.083Z,7.30
2018-04-08T19:23:08.616Z,6.67
2018-04-08T19:25:44.986Z,6.03
2018-04-08T19:28:18.130Z,6.03
2018-04-08T19:30:50.716Z,5.83
2018-04-08T19:33:24.317Z,6.70
2018-04-08T19:38:40.181Z,5.80
2018-04-08T19:41:20.259Z,5.20
2018-04-08T19:43:57.351Z,4.70
2018-04-08T19:46:31.442Z,4.60
2018-04-08T19:51:51.740Z,4.83
2018-04-08T19:54:24.521Z,5.40
2018-04-08T19:56:54.838Z,5.70
2018-04-08T19:59:40.918Z,5.50
2018-04-08T20:03:57.403Z,5.57
2018-04-08T20:06:36.872Z,5.00
2018-04-08T20:09:09.884Z,5.20
2018-04-08T20:11:50.143Z,4.97
2018-04-08T20:14:39.797Z,4.10
2018-04-08T20:17:13.327Z,4.13
2018-04-08T20:19:48.616Z,4.43
2018-04-08T20:22:21.144Z,5.80
2018-04-08T20:25:03.388Z,15.93
2018-04-08T20:27:36.297Z,12.97
2018-04-08T20:30:10.548Z,13.50
2018-04-08T20:32:41.722Z,8.83
2018-04-08T20:35:16.952Z,6.33
2018-04-08T20:37:51.916Z,10.07
2018-04-08T20:43:24.070Z,7.17
2018-04-08T20:46:05.104Z,5.70
2018-04-08T20:48:44.612Z,4.73
2018-04-08T20:51:17.283Z,5.00
2018-04-08T20:53:50.705Z,5.43
2018-04-08T20:56:30.123Z,4.97
2018-04-08T20:59:07.272Z,5.23
2018-04-08T21:01:42.277Z,5.70
2018-04-08T21:04:18.670Z,4.60
2018-04-08T21:06:55.478Z,4.53
2018-04-08T21:09:26.464Z,4.33
2018-04-08T21:12:00.343Z,5.07
2018-04-08T21:14:33.701Z,4.93
2018-04-08T21:17:07.107Z,4.97
2018-04-08T21:19:43.505Z,5.67
2018-04-08T21:22:20.748Z,5.70
2018-04-08T21:27:38.494Z,5.97
2018-04-08T21:30:11.878Z,5.67
2018-04-08T21:32:48.619Z,5.60
2018-04-08T21:35:24.926Z,5.63
2018-04-08T21:37:58.819Z,5.93
2018-04-08T21:40:31.449Z,6.33
2018-04-08T21:45:44.773Z,6.43
2018-04-08T21:48:37.222Z,5.90
2018-04-08T21:51:16.447Z,6.47
2018-04-08T21:53:53.207Z,6.67
2018-04-08T21:56:23.088Z,5.47
2018-04-08T21:58:55.956Z,5.80
2018-04-08T22:01:27.387Z,5.50
2018-04-08T22:04:02.682Z,5.73
2018-04-08T22:06:33.707Z,5.60
2018-04-08T22:09:07.192Z,6.10
2018-04-08T22:11:36.656Z,5.50
2018-04-08T22:14:08.700Z,7.40
2018-04-08T22:16:41.918Z,6.10
2018-04-08T22:19:15.580Z,6.43
2018-04-08T22:21:47.580Z,6.70
2018-04-08T22:24:20.616Z,6.50
2018-04-08T22:26:49.877Z,7.00
2018-04-08T22:32:06.637Z,6.23
2018-04-08T22:34:37.047Z,5.97
2018-04-08T22:37:08.252Z,6.90
2018-04-08T22:39:38.959Z,6.50
2018-04-08T22:42:11.657Z,6.60
2018-04-08T22:44:40.294Z,7.60
2018-04-08T22:47:11.218Z,8.10
2018-04-08T22:49:45.081Z,6.33
2018-04-08T22:52:16.708Z,6.50
2018-04-08T22:54:48.256Z,11.77
2018-04-08T22:57:17.829Z,8.23
2018-04-08T22:59:49.007Z,8.17
2018-04-08T23:02:18.885Z,7.40
2018-04-08T23:04:50.264Z,6.70
2018-04-08T23:07:21.751Z,6.43
2018-04-08T23:09:53.536Z,11.10
2018-04-08T23:12:25.731Z,7.63
2018-04-08T23:14:57.012Z,8.47
2018-04-08T23:17:26.586Z,7.23
2018-04-08T23:19:56.696Z,7.83
2018-04-08T23:22:26.218Z,10.10
2018-04-08T23:24:59.524Z,7.70
2018-04-08T23:27:29.309Z,7.40
2018-04-08T23:30:03.318Z,9.03
2018-04-08T23:32:33.062Z,6.90
2018-04-08T23:35:03.971Z,11.33
2018-04-08T23:37:33.725Z,6.77
2018-04-08T23:40:08.540Z,6.90
2018-04-08T23:42:40.325Z,6.87
2018-04-08T23:45:14.473Z,7.17
2018-04-08T23:47:43.059Z,6.63
2018-04-08T23:50:14.285Z,7.90
2018-04-08T23:52:43.261Z,7.97
2018-04-08T23:55:16.244Z,8.57
2018-04-08T23:57:46.812Z,11.10
